createdAt,value
2019-02-06T00:03:48.488Z,39.63
2019-02-06T00:09:53.282Z,40.93
2019-02-06T00:15:58.326Z,39.77
2019-02-06T00:22:06.037Z,43.60
2019-02-06T00:28:11.440Z,38.53
2019-02-06T00:34:16.218Z,43.73
2019-02-06T00:40:20.936Z,44.47
2019-02-06T00:46:28.894Z,43.10
2019-02-06T00:52:33.574Z,50.97
2019-02-06T00:58:38.356Z,43.00
2019-02-06T01:04:43.632Z,43.40
2019-02-06T01:10:48.610Z,50.77
2019-02-06T01:16:53.287Z,49.50
2019-02-06T01:22:58.038Z,44.50
2019-02-06T01:29:02.690Z,45.50
2019-02-06T01:35:11.362Z,46.47
2019-02-06T01:41:16.286Z,45.20
2019-02-06T01:47:21.096Z,45.77
2019-02-06T01:53:25.983Z,45.50
2019-02-06T01:59:30.756Z,47.23
2019-02-06T02:05:37.803Z,46.70
2019-02-06T02:11:42.301Z,44.90
2019-02-06T02:17:47.234Z,42.00
2019-02-06T02:23:52.360Z,47.33
2019-02-06T02:29:56.925Z,49.07
2019-02-06T02:36:14.489Z,41.27
2019-02-06T02:42:07.883Z,46.00
2019-02-06T02:48:13.047Z,47.70
2019-02-06T02:54:17.755Z,47.20
2019-02-06T03:00:30.604Z,40.40
2019-02-06T03:06:35.337Z,51.47
2019-02-06T03:12:40.155Z,52.37
2019-02-06T03:18:45.046Z,49.07
2019-02-06T03:24:49.732Z,39.83
2019-02-06T03:30:54.430Z,42.00
2019-02-06T03:36:59.263Z,44.07
2019-02-06T03:43:04.287Z,45.97
2019-02-06T03:49:09.108Z,46.13
2019-02-06T03:55:14.827Z,51.17
2019-02-06T04:01:19.470Z,47.80
2019-02-06T04:07:26.880Z,48.23
2019-02-06T04:13:31.769Z,45.00
2019-02-06T04:19:36.470Z,41.87
2019-02-06T04:25:42.499Z,48.93
2019-02-06T04:31:49.902Z,53.07
2019-02-06T04:37:54.560Z,38.60
2019-02-06T04:43:59.339Z,45.03
2019-02-06T04:50:07.872Z,47.93
2019-02-06T04:56:12.572Z,44.37
2019-02-06T05:02:17.219Z,40.60
2019-02-06T05:08:22.096Z,47.37
2019-02-06T05:14:26.954Z,41.17
2019-02-06T05:20:39.541Z,38.50
2019-02-06T05:26:45.019Z,43.87
2019-02-06T05:32:49.876Z,45.10
2019-02-06T05:38:54.536Z,35.70
2019-02-06T05:44:59.438Z,39.40
2019-02-06T05:51:04.354Z,41.70
2019-02-06T05:57:09.129Z,52.37
2019-02-06T06:03:14.268Z,46.93
2019-02-06T06:09:18.828Z,45.90
2019-02-06T06:15:23.763Z,46.13
2019-02-06T06:21:28.575Z,48.43
2019-02-06T06:27:33.420Z,40.47
2019-02-06T06:33:38.462Z,45.83
2019-02-06T06:39:43.133Z,47.40
2019-02-06T06:45:47.932Z,55.30
2019-02-06T06:51:52.684Z,48.73
2019-02-06T06:57:57.639Z,45.80
2019-02-06T07:04:02.389Z,48.80
2019-02-06T07:10:12.279Z,42.03
2019-02-06T07:16:17.208Z,41.80
2019-02-06T07:22:21.973Z,47.63
2019-02-06T07:28:26.561Z,39.70
2019-02-06T07:34:31.260Z,46.87
2019-02-06T07:40:35.917Z,40.63
2019-02-06T07:46:43.302Z,44.00
2019-02-06T07:52:48.121Z,38.40
2019-02-06T07:58:53.066Z,40.50
2019-02-06T08:04:57.638Z,40.37
2019-02-06T08:11:03.139Z,36.80
2019-02-06T08:17:07.894Z,39.20
2019-02-06T08:23:13.051Z,36.97
2019-02-06T08:29:17.748Z,34.30
2019-02-06T08:35:22.607Z,38.27
2019-02-06T08:41:27.514Z,38.00
2019-02-06T08:47:32.152Z,37.20
2019-02-06T08:53:36.891Z,42.70
2019-02-06T08:59:41.786Z,42.47
2019-02-06T09:05:46.591Z,47.13
2019-02-06T09:11:51.367Z,38.53
2019-02-06T09:17:56.394Z,35.90
2019-02-06T09:24:04.365Z,36.83
2019-02-06T09:30:13.752Z,41.90
2019-02-06T09:36:20.946Z,39.87
2019-02-06T09:42:26.012Z,36.67
2019-02-06T09:48:30.740Z,33.03
2019-02-06T09:54:35.405Z,30.50
2019-02-06T10:00:40.627Z,36.97
2019-02-06T10:06:45.463Z,33.80
2019-02-06T10:12:50.135Z,30.17
2019-02-06T10:18:54.695Z,35.87
2019-02-06T10:24:59.404Z,31.37
2019-02-06T10:31:04.160Z,31.27
2019-02-06T10:37:08.795Z,34.50
2019-02-06T10:43:13.805Z,29.60
2019-02-06T10:49:18.459Z,31.90
2019-02-06T10:55:23.298Z,27.93
2019-02-06T11:01:28.127Z,32.50
2019-02-06T11:07:32.979Z,28.23
2019-02-06T11:13:37.867Z,31.80
2019-02-06T11:19:43.908Z,29.87
2019-02-06T11:25:48.874Z,27.87
2019-02-06T11:31:53.755Z,28.23
2019-02-06T11:37:58.605Z,30.17
2019-02-06T11:44:03.357Z,26.93
2019-02-06T11:50:15.310Z,26.87
2019-02-06T11:56:20.017Z,28.53
2019-02-06T12:02:36.965Z,28.83
2019-02-06T12:08:35.101Z,28.23
2019-02-06T12:14:41.795Z,25.27
2019-02-06T12:20:46.803Z,28.97
2019-02-06T12:26:51.677Z,25.93
2019-02-06T12:32:56.429Z,26.67
2019-02-06T12:39:01.064Z,27.53
2019-02-06T12:45:09.706Z,25.47
2019-02-06T12:51:14.415Z,23.97
2019-02-06T12:57:19.350Z,27.30
2019-02-06T13:03:24.060Z,25.03
2019-02-06T13:09:32.097Z,23.13
2019-02-06T13:15:36.905Z,21.17
2019-02-06T13:21:42.034Z,24.40
2019-02-06T13:27:46.741Z,18.10
2019-02-06T13:33:51.603Z,18.73
2019-02-06T13:39:59.945Z,25.07
2019-02-06T13:46:04.835Z,29.63
2019-02-06T13:52:09.590Z,25.13
2019-02-06T13:58:20.140Z,24.30
2019-02-06T14:04:21.409Z,26.83
2019-02-06T14:10:31.655Z,24.87
2019-02-06T14:16:36.828Z,22.23
2019-02-06T14:22:42.027Z,23.63
2019-02-06T14:29:30.213Z,21.23
2019-02-06T14:35:51.248Z,24.57
2019-02-06T14:42:28.685Z,20.93
2019-02-06T14:48:46.359Z,23.87
2019-02-06T14:55:21.850Z,25.17
2019-02-06T15:01:39.835Z,25.17
2019-02-06T15:08:07.296Z,24.10
2019-02-06T15:14:23.790Z,19.00
2019-02-06T15:20:35.692Z,21.43
2019-02-06T15:26:53.491Z,21.37
2019-02-06T15:33:24.248Z,27.23
2019-02-06T15:39:42.499Z,23.37
2019-02-06T15:46:03.548Z,21.03
2019-02-06T15:52:35.560Z,24.70
2019-02-06T15:58:56.904Z,24.80
2019-02-06T16:05:29.753Z,28.73
2019-02-06T16:11:50.534Z,21.00
2019-02-06T16:18:27.160Z,21.77
2019-02-06T16:24:48.323Z,21.33
2019-02-06T16:31:06.715Z,19.20
2019-02-06T16:37:45.789Z,23.20
2019-02-06T16:43:57.804Z,23.07
2019-02-06T16:50:33.857Z,18.93
2019-02-06T16:57:04.031Z,20.03
2019-02-06T17:03:19.070Z,18.20
2019-02-06T17:09:37.172Z,24.17
2019-02-06T17:16:25.455Z,22.40
2019-02-06T17:22:55.362Z,22.73
2019-02-06T17:29:29.922Z,24.23
2019-02-06T17:35:45.023Z,22.10
2019-02-06T17:42:16.862Z,22.00
2019-02-06T17:48:45.753Z,23.50
2019-02-06T17:55:22.291Z,22.53
2019-02-06T18:01:30.165Z,34.07
2019-02-06T18:07:34.826Z,26.60
2019-02-06T18:13:39.985Z,27.77
2019-02-06T18:19:45.033Z,27.33
2019-02-06T18:25:49.792Z,22.90
2019-02-06T18:31:54.363Z,25.70
2019-02-06T18:37:59.265Z,23.17
2019-02-06T18:44:04.410Z,26.87
2019-02-06T18:50:31.026Z,26.23
2019-02-06T18:56:35.144Z,24.90
2019-02-06T19:02:40.514Z,24.30
2019-02-06T19:08:45.581Z,26.97
2019-02-06T19:14:51.235Z,25.40
2019-02-06T19:20:55.948Z,26.97
2019-02-06T19:27:00.541Z,30.60
2019-02-06T19:33:05.691Z,27.53
2019-02-06T19:39:10.815Z,23.80
2019-02-06T19:45:18.043Z,31.03
2019-02-06T19:51:22.767Z,25.03
2019-02-06T19:57:27.486Z,28.20
2019-02-06T20:03:32.198Z,26.00
2019-02-06T20:09:36.897Z,26.53
2019-02-06T20:15:41.771Z,28.33
2019-02-06T20:21:46.766Z,28.87
2019-02-06T20:27:53.867Z,27.77
2019-02-06T20:33:58.656Z,29.13
2019-02-06T20:40:04.293Z,26.87
2019-02-06T20:46:12.252Z,28.90
2019-02-06T20:52:16.850Z,30.93
2019-02-06T20:58:21.552Z,26.60
2019-02-06T21:04:26.181Z,35.17
2019-02-06T21:10:33.146Z,28.07
2019-02-06T21:16:37.914Z,22.80
2019-02-06T21:22:43.138Z,28.90
2019-02-06T21:28:48.176Z,23.10
2019-02-06T21:34:53.048Z,28.73
2019-02-06T21:40:57.856Z,28.07
2019-02-06T21:47:02.453Z,31.07
2019-02-06T21:53:07.504Z,32.23
2019-02-06T21:59:12.968Z,33.00
2019-02-06T22:05:17.837Z,27.13
2019-02-06T22:11:22.847Z,26.80
2019-02-06T22:17:27.761Z,26.43
2019-02-06T22:23:33.735Z,27.43
2019-02-06T22:29:38.452Z,27.97
2019-02-06T22:35:43.690Z,27.57
2019-02-06T22:41:48.377Z,27.30
2019-02-06T22:47:53.252Z,28.73
2019-02-06T22:53:58.248Z,29.80
2019-02-06T23:00:03.013Z,28.57
2019-02-06T23:06:08.279Z,28.53
2019-02-06T23:12:13.581Z,27.70
2019-02-06T23:18:20.706Z,26.57
2019-02-06T23:24:25.359Z,26.13
2019-02-06T23:30:30.228Z,28.77
2019-02-06T23:36:35.063Z,25.53
2019-02-06T23:42:39.948Z,30.20
2019-02-06T23:48:45.004Z,29.83
2019-02-06T23:54:49.739Z,22.63
